createdAt,value
2022-11-23T00:00:34.578Z,0.00
2022-11-23T00:01:34.909Z,0.00
2022-11-23T00:02:35.181Z,0.00
2022-11-23T00:03:34.604Z,0.04
2022-11-23T00:04:34.833Z,0.04
2022-11-23T00:05:34.133Z,0.00
2022-11-23T00:06:34.403Z,0.00
2022-11-23T00:07:34.831Z,0.00
2022-11-23T00:08:33.959Z,0.00
2022-11-23T00:09:34.492Z,0.00
2022-11-23T00:10:34.548Z,0.04
2022-11-23T00:11:34.871Z,0.00
2022-11-23T00:13:35.454Z,0.00
2022-11-23T00:14:36.863Z,0.00
2022-11-23T00:15:34.908Z,0.00
2022-11-23T00:16:34.273Z,0.00
2022-11-23T00:17:35.483Z,0.00
2022-11-23T00:18:33.788Z,0.00
2022-11-23T00:19:35.030Z,0.00
2022-11-23T00:20:34.469Z,0.00
2022-11-23T00:21:35.598Z,0.00
2022-11-23T00:22:35.889Z,0.00
2022-11-23T00:23:34.185Z,0.00
2022-11-23T00:24:34.505Z,0.00
2022-11-23T00:25:34.788Z,0.00
2022-11-23T00:26:34.535Z,0.00
2022-11-23T00:27:33.912Z,0.00
2022-11-23T00:28:35.025Z,0.00
2022-11-23T00:29:34.450Z,0.00
2022-11-23T00:30:33.723Z,0.00
2022-11-23T00:31:34.308Z,0.00
2022-11-23T00:32:35.401Z,0.00
2022-11-23T00:33:33.613Z,0.00
2022-11-23T00:34:35.814Z,0.00
2022-11-23T00:35:34.078Z,0.00
2022-11-23T00:36:34.409Z,0.00
2022-11-23T00:37:34.653Z,0.00
2022-11-23T00:38:33.893Z,0.00
2022-11-23T00:39:37.308Z,0.00
2022-11-23T00:40:35.489Z,0.00
2022-11-23T00:41:33.724Z,0.00
2022-11-23T00:42:38.199Z,0.00
2022-11-23T00:43:34.301Z,0.00
2022-11-23T00:44:33.522Z,0.00
2022-11-23T00:45:33.823Z,0.00
2022-11-23T00:46:33.643Z,0.00
2022-11-23T00:47:33.916Z,0.00
2022-11-23T00:48:34.228Z,0.00
2022-11-23T00:49:33.691Z,0.00
2022-11-23T00:50:33.733Z,0.00
2022-11-23T00:51:35.048Z,0.00
2022-11-23T00:52:34.251Z,0.00
2022-11-23T00:53:36.704Z,0.00
2022-11-23T00:54:34.808Z,0.00
2022-11-23T00:56:35.249Z,0.00
2022-11-23T00:57:34.532Z,0.00
2022-11-23T00:58:34.814Z,0.00
2022-11-23T00:59:35.137Z,0.00
2022-11-23T01:00:33.234Z,0.00
2022-11-23T01:01:33.546Z,0.00
2022-11-23T01:02:33.818Z,0.00
2022-11-23T01:03:35.033Z,0.00
2022-11-23T01:04:33.298Z,0.00
2022-11-23T01:06:33.883Z,0.00
2022-11-23T01:07:34.233Z,0.00
2022-11-23T01:08:33.393Z,0.00
2022-11-23T01:09:33.846Z,0.00
2022-11-23T01:10:33.928Z,0.00
2022-11-23T01:11:33.307Z,0.00
2022-11-23T01:12:33.426Z,0.00
2022-11-23T01:13:33.685Z,0.00
2022-11-23T01:14:33.948Z,0.00
2022-11-23T01:15:33.163Z,0.00
2022-11-23T01:16:33.467Z,0.00
2022-11-23T01:17:33.854Z,0.00
2022-11-23T01:18:34.874Z,0.00
2022-11-23T01:19:33.448Z,0.00
2022-11-23T01:20:34.318Z,0.00
2022-11-23T01:21:33.608Z,0.00
2022-11-23T01:22:33.901Z,0.00
2022-11-23T01:23:34.122Z,0.00
2022-11-23T01:24:33.329Z,0.00
2022-11-23T01:25:33.594Z,0.00
2022-11-23T01:26:33.878Z,0.00
2022-11-23T01:27:33.090Z,0.04
2022-11-23T01:28:33.293Z,0.00
2022-11-23T01:29:36.653Z,0.00
2022-11-23T01:30:33.782Z,0.00
2022-11-23T01:31:33.008Z,0.00
2022-11-23T01:32:36.917Z,0.00
2022-11-23T01:33:34.598Z,0.00
2022-11-23T01:34:33.792Z,0.00
2022-11-23T01:35:35.003Z,0.00
2022-11-23T01:36:33.249Z,0.00
2022-11-23T01:37:34.537Z,0.00
2022-11-23T01:38:33.916Z,0.00
2022-11-23T01:39:37.050Z,0.00
2022-11-23T01:40:34.273Z,0.00
2022-11-23T01:41:33.478Z,0.00
2022-11-23T01:42:33.738Z,0.00
2022-11-23T01:43:32.948Z,0.00
2022-11-23T01:44:33.532Z,0.04
2022-11-23T01:45:33.458Z,0.00
2022-11-23T01:46:34.678Z,0.04
2022-11-23T01:47:32.914Z,0.00
2022-11-23T01:48:32.824Z,0.00
2022-11-23T01:49:33.406Z,0.00
2022-11-23T01:50:35.513Z,0.00
2022-11-23T01:51:34.653Z,0.00
2022-11-23T01:52:32.803Z,0.00
2022-11-23T01:54:34.353Z,0.00
2022-11-23T01:56:33.934Z,0.00
2022-11-23T01:57:33.041Z,0.00
2022-11-23T01:58:33.303Z,0.00
2022-11-23T01:59:35.648Z,0.00
2022-11-23T02:00:32.779Z,0.00
2022-11-23T02:02:35.423Z,0.00
2022-11-23T02:03:32.483Z,0.00
2022-11-23T02:04:36.825Z,0.00
2022-11-23T02:05:34.026Z,0.00
2022-11-23T02:06:33.242Z,0.00
2022-11-23T02:07:33.592Z,0.00
2022-11-23T02:08:35.924Z,0.00
2022-11-23T02:09:34.262Z,0.00
2022-11-23T02:10:35.214Z,0.00
2022-11-23T02:11:33.416Z,0.00
2022-11-23T02:12:32.784Z,0.00
2022-11-23T02:13:33.005Z,0.00
2022-11-23T02:14:33.355Z,0.00
2022-11-23T02:15:32.519Z,0.00
2022-11-23T02:16:33.704Z,0.00
2022-11-23T02:17:33.008Z,0.00
2022-11-23T02:18:32.243Z,0.00
2022-11-23T02:19:33.052Z,0.00
2022-11-23T02:20:32.785Z,0.00
2022-11-23T02:21:33.024Z,0.00
2022-11-23T02:22:32.259Z,0.00
2022-11-23T02:23:32.493Z,0.00
2022-11-23T02:24:34.734Z,0.00
2022-11-23T02:25:34.119Z,0.00
2022-11-23T02:26:32.270Z,0.00
2022-11-23T02:27:32.535Z,0.00
2022-11-23T02:28:32.794Z,0.00
2022-11-23T02:29:33.475Z,0.00
2022-11-23T02:30:32.324Z,0.00
2022-11-23T02:31:32.653Z,0.00
2022-11-23T02:32:32.869Z,0.00
2022-11-23T02:33:32.113Z,0.00
2022-11-23T02:34:32.374Z,0.00
2022-11-23T02:35:32.673Z,0.00
2022-11-23T02:36:32.964Z,0.00
2022-11-23T02:37:32.270Z,0.00
2022-11-23T02:38:36.488Z,0.00
2022-11-23T02:39:34.756Z,0.00
2022-11-23T02:40:34.944Z,0.00
2022-11-23T02:41:34.264Z,0.00
2022-11-23T02:42:34.539Z,0.00
2022-11-23T02:43:32.684Z,0.00
2022-11-23T02:44:32.978Z,0.00
2022-11-23T02:45:32.160Z,0.00
2022-11-23T02:46:35.513Z,0.00
2022-11-23T02:47:35.859Z,0.00
2022-11-23T02:48:31.884Z,0.00
2022-11-23T02:49:32.409Z,0.00
2022-11-23T02:50:35.535Z,0.00
2022-11-23T02:51:32.685Z,0.00
2022-11-23T02:52:31.914Z,0.00
2022-11-23T02:53:32.274Z,0.00
2022-11-23T02:54:32.460Z,0.00
2022-11-23T02:55:32.726Z,0.00
2022-11-23T02:56:34.043Z,0.04
2022-11-23T02:57:35.259Z,0.00
2022-11-23T02:58:32.579Z,0.00
2022-11-23T02:59:32.038Z,0.00
2022-11-23T03:00:35.165Z,0.00
2022-11-23T03:01:33.309Z,0.00
2022-11-23T03:02:32.529Z,0.00
2022-11-23T03:03:34.958Z,0.00
2022-11-23T03:04:33.064Z,0.00
2022-11-23T03:05:32.308Z,0.00
2022-11-23T03:06:34.686Z,0.00
2022-11-23T03:07:33.923Z,0.00
2022-11-23T03:08:32.125Z,0.00
2022-11-23T03:09:34.817Z,0.00
2022-11-23T03:10:32.695Z,0.00
2022-11-23T03:11:31.863Z,0.00
2022-11-23T03:12:34.251Z,0.00
2022-11-23T03:13:32.419Z,0.00
2022-11-23T03:14:34.775Z,0.00
2022-11-23T03:15:34.014Z,0.00
2022-11-23T03:16:32.219Z,0.00
2022-11-23T03:17:34.550Z,0.00
2022-11-23T03:18:31.689Z,0.00
2022-11-23T03:19:32.442Z,0.00
2022-11-23T03:20:34.414Z,0.00
2022-11-23T03:21:35.538Z,0.00
2022-11-23T03:22:31.704Z,0.00
2022-11-23T03:23:35.091Z,0.00
2022-11-23T03:24:33.289Z,0.00
2022-11-23T03:25:31.461Z,0.00
2022-11-23T03:26:31.879Z,0.00
2022-11-23T03:27:33.028Z,0.00
2022-11-23T03:28:32.269Z,0.00
2022-11-23T03:29:34.913Z,0.00
2022-11-23T03:30:32.809Z,0.00
2022-11-23T03:31:33.194Z,0.00
2022-11-23T03:32:31.308Z,0.00
2022-11-23T03:33:31.555Z,0.00
2022-11-23T03:34:32.900Z,0.04
2022-11-23T03:35:33.174Z,0.00
2022-11-23T03:36:31.345Z,0.00
2022-11-23T03:37:34.769Z,0.00
2022-11-23T03:38:31.884Z,0.00
2022-11-23T03:40:32.348Z,0.00
2022-11-23T03:41:32.619Z,0.00
2022-11-23T03:42:32.923Z,0.00
2022-11-23T03:43:32.321Z,0.00
2022-11-23T03:44:31.449Z,0.00
2022-11-23T03:45:31.718Z,0.00
2022-11-23T03:46:31.978Z,0.00
2022-11-23T03:47:31.224Z,0.00
2022-11-23T03:48:31.519Z,0.00
2022-11-23T03:49:33.208Z,0.00
2022-11-23T03:50:32.989Z,0.00
2022-11-23T03:51:31.274Z,0.00
2022-11-23T03:53:32.845Z,0.00
2022-11-23T03:54:31.043Z,0.00
2022-11-23T03:55:31.380Z,0.00
2022-11-23T03:56:31.594Z,0.00
2022-11-23T03:57:32.808Z,0.00
2022-11-23T03:58:31.114Z,0.00
2022-11-23T03:59:31.824Z,0.00
2022-11-23T04:00:31.664Z,0.00
2022-11-23T04:01:31.907Z,0.00
2022-11-23T04:02:32.138Z,0.00
2022-11-23T04:03:31.489Z,0.00
2022-11-23T04:04:31.815Z,0.00
2022-11-23T04:06:32.478Z,0.00
2022-11-23T04:07:32.658Z,0.00
2022-11-23T04:08:31.809Z,0.00
2022-11-23T04:09:31.415Z,0.00
2022-11-23T04:10:31.423Z,0.00
2022-11-23T04:11:32.793Z,0.00
2022-11-23T04:12:33.983Z,0.00
2022-11-23T04:13:33.195Z,0.00
2022-11-23T04:14:31.478Z,0.00
2022-11-23T04:15:30.714Z,0.00
2022-11-23T04:16:31.973Z,0.00
2022-11-23T04:17:31.378Z,0.00
2022-11-23T04:18:31.561Z,0.00
2022-11-23T04:19:33.140Z,0.00
2022-11-23T04:20:31.201Z,0.00
2022-11-23T04:21:31.314Z,0.00
2022-11-23T04:22:31.644Z,0.00
2022-11-23T04:23:30.843Z,0.00
2022-11-23T04:24:32.053Z,0.00
2022-11-23T04:25:31.384Z,0.00
2022-11-23T04:26:30.618Z,0.00
2022-11-23T04:27:30.878Z,0.00
2022-11-23T04:28:32.284Z,0.00
2022-11-23T04:29:31.889Z,0.00
2022-11-23T04:30:31.678Z,0.00
2022-11-23T04:31:32.934Z,0.00
2022-11-23T04:32:34.308Z,0.00
2022-11-23T04:33:32.429Z,0.00
2022-11-23T04:34:30.798Z,0.00
2022-11-23T04:35:30.983Z,0.00
2022-11-23T04:36:32.193Z,0.00
2022-11-23T04:37:31.538Z,0.00
2022-11-23T04:38:31.688Z,0.00
2022-11-23T04:39:31.317Z,0.00
2022-11-23T04:40:31.293Z,0.00
2022-11-23T04:41:30.497Z,0.04
2022-11-23T04:42:31.704Z,0.00
2022-11-23T04:43:31.018Z,0.04
2022-11-23T04:44:31.239Z,0.00
2022-11-23T04:45:31.462Z,0.00
2022-11-23T04:46:31.663Z,0.00
2022-11-23T04:47:31.907Z,0.00
2022-11-23T04:48:32.149Z,0.00
2022-11-23T04:49:30.811Z,0.00
2022-11-23T04:50:30.718Z,0.00
2022-11-23T04:51:30.988Z,0.00
2022-11-23T04:52:32.183Z,0.00
2022-11-23T04:53:30.422Z,0.00
2022-11-23T04:54:30.652Z,0.00
2022-11-23T04:55:30.919Z,0.00
2022-11-23T04:56:31.363Z,0.04
2022-11-23T04:57:31.354Z,0.00
2022-11-23T04:58:34.569Z,0.00
2022-11-23T04:59:31.147Z,0.04
2022-11-23T05:00:31.073Z,0.00
2022-11-23T05:01:31.378Z,0.00
2022-11-23T05:02:30.688Z,0.00
2022-11-23T05:03:31.887Z,0.00
2022-11-23T05:04:31.105Z,0.00
2022-11-23T05:05:30.398Z,0.00
2022-11-23T05:06:30.652Z,0.00
2022-11-23T05:07:31.153Z,0.00
2022-11-23T05:08:31.099Z,0.00
2022-11-23T05:09:30.825Z,0.00
2022-11-23T05:10:31.587Z,0.00
2022-11-23T05:11:30.865Z,0.00
2022-11-23T05:12:30.110Z,0.00
2022-11-23T05:13:31.384Z,0.00
2022-11-23T05:14:30.637Z,0.00
2022-11-23T05:15:31.869Z,0.00
2022-11-23T05:16:30.136Z,0.00
2022-11-23T05:17:30.409Z,0.00
2022-11-23T05:18:30.667Z,0.00
2022-11-23T05:19:31.220Z,0.00
2022-11-23T05:20:30.125Z,0.00
2022-11-23T05:21:30.394Z,0.00
2022-11-23T05:22:30.709Z,0.00
2022-11-23T05:23:29.913Z,0.00
2022-11-23T05:24:30.348Z,0.00
2022-11-23T05:25:31.443Z,0.02
2022-11-23T05:26:30.733Z,0.02
2022-11-23T05:27:30.914Z,0.00
2022-11-23T05:28:40.262Z,0.00
2022-11-23T05:29:31.842Z,0.00
2022-11-23T05:30:30.860Z,0.00
2022-11-23T05:31:30.091Z,0.00
2022-11-23T05:32:30.357Z,0.00
2022-11-23T05:33:30.649Z,0.07
2022-11-23T05:34:29.923Z,0.00
2022-11-23T05:35:30.227Z,0.00
2022-11-23T05:36:31.603Z,0.00
2022-11-23T05:37:30.809Z,0.00
2022-11-23T05:38:30.988Z,0.00
2022-11-23T05:39:30.972Z,0.02
2022-11-23T05:40:31.878Z,0.00
2022-11-23T05:41:30.781Z,0.00
2022-11-23T05:42:31.029Z,0.00
2022-11-23T05:43:31.307Z,0.00
2022-11-23T05:44:29.613Z,0.00
2022-11-23T05:45:30.858Z,0.00
2022-11-23T05:46:31.178Z,0.00
2022-11-23T05:47:31.443Z,0.00
2022-11-23T05:48:30.677Z,0.00
2022-11-23T05:49:30.530Z,0.00
2022-11-23T05:50:30.263Z,0.00
2022-11-23T05:51:30.742Z,0.02
2022-11-23T05:52:29.865Z,0.02
2022-11-23T05:53:31.132Z,0.00
2022-11-23T05:54:30.383Z,0.00
2022-11-23T05:55:31.647Z,0.02
2022-11-23T05:56:29.918Z,0.00
2022-11-23T05:57:30.280Z,0.02
2022-11-23T05:58:29.464Z,0.02
2022-11-23T05:59:30.322Z,0.01
2022-11-23T06:00:30.987Z,0.01
2022-11-23T06:01:31.315Z,0.00
2022-11-23T06:02:30.553Z,0.02
2022-11-23T06:03:29.911Z,0.02
2022-11-23T06:04:30.167Z,0.00
2022-11-23T06:05:30.508Z,0.02
2022-11-23T06:06:29.677Z,0.00
2022-11-23T06:07:30.029Z,0.02
2022-11-23T06:08:30.572Z,0.02
2022-11-23T06:09:29.692Z,0.02
2022-11-23T06:10:30.762Z,0.00
2022-11-23T06:11:30.078Z,0.01
2022-11-23T06:12:31.598Z,0.01
2022-11-23T06:13:30.573Z,0.05
2022-11-23T06:14:29.887Z,0.01
2022-11-23T06:15:30.210Z,0.03
2022-11-23T06:16:31.423Z,0.02
2022-11-23T06:17:30.662Z,0.02
2022-11-23T06:18:30.943Z,0.02
2022-11-23T06:19:29.794Z,0.02
2022-11-23T06:20:31.493Z,0.02
2022-11-23T06:21:30.739Z,0.03
2022-11-23T06:22:30.988Z,0.04
2022-11-23T06:23:29.265Z,0.04
2022-11-23T06:24:30.574Z,0.04
2022-11-23T06:25:29.851Z,0.04
2022-11-23T06:26:29.110Z,0.05
2022-11-23T06:27:30.466Z,0.36
2022-11-23T06:28:29.688Z,0.07
2022-11-23T06:29:30.396Z,0.11
2022-11-23T06:30:31.252Z,0.12
2022-11-23T06:31:30.532Z,0.15
2022-11-23T06:32:30.747Z,0.17
2022-11-23T06:33:30.037Z,0.20
2022-11-23T06:34:32.323Z,0.24
2022-11-23T06:35:36.862Z,0.30
2022-11-23T06:36:29.818Z,0.35
2022-11-23T06:37:32.173Z,0.40
2022-11-23T06:38:30.402Z,0.46
2022-11-23T06:39:30.899Z,0.52
2022-11-23T06:40:32.378Z,0.62
2022-11-23T06:41:32.540Z,0.72
2022-11-23T06:42:38.808Z,0.84
2022-11-23T06:43:30.719Z,0.97
2022-11-23T06:44:29.973Z,1.07
2022-11-23T06:45:29.252Z,1.18
2022-11-23T06:46:29.648Z,1.32
2022-11-23T06:47:30.818Z,1.45
2022-11-23T06:48:31.017Z,1.62
2022-11-23T06:49:31.495Z,1.78
2022-11-23T06:50:29.573Z,1.97
2022-11-23T06:51:28.788Z,2.20
2022-11-23T06:52:29.285Z,2.40
2022-11-23T06:53:29.312Z,2.62
2022-11-23T06:54:30.544Z,2.84
2022-11-23T06:55:30.798Z,3.06
2022-11-23T06:56:33.198Z,3.37
2022-11-23T06:57:29.427Z,3.69
2022-11-23T06:58:32.697Z,4.12
2022-11-23T06:59:31.239Z,4.55
2022-11-23T07:00:31.187Z,5.07
2022-11-23T07:01:31.533Z,5.51
2022-11-23T07:02:30.884Z,6.00
2022-11-23T07:03:31.012Z,6.56
2022-11-23T07:04:31.342Z,7.09
2022-11-23T07:05:30.463Z,7.54
2022-11-23T07:06:30.757Z,8.33
2022-11-23T07:07:32.187Z,8.31
2022-11-23T07:08:31.382Z,9.18
2022-11-23T07:09:28.510Z,10.03
2022-11-23T07:10:32.849Z,10.99
2022-11-23T07:11:31.134Z,12.87
2022-11-23T07:12:29.414Z,14.50
2022-11-23T07:13:29.663Z,16.47
2022-11-23T07:14:30.928Z,19.18
2022-11-23T07:15:29.098Z,21.33
2022-11-23T07:16:30.328Z,23.43
2022-11-23T07:17:28.788Z,24.98
2022-11-23T07:18:29.838Z,26.50
2022-11-23T07:19:30.544Z,29.89
2022-11-23T07:20:29.427Z,33.60
2022-11-23T07:21:29.602Z,36.56
2022-11-23T07:22:28.938Z,40.48
2022-11-23T07:23:30.127Z,45.87
2022-11-23T07:24:33.126Z,51.14
2022-11-23T07:25:29.688Z,55.49
2022-11-23T07:26:29.883Z,60.60
2022-11-23T07:27:30.173Z,65.90
2022-11-23T07:28:29.418Z,70.95
2022-11-23T07:29:32.241Z,76.35
2022-11-23T07:30:30.058Z,79.49
2022-11-23T07:31:30.307Z,81.33
2022-11-23T07:32:31.657Z,82.75
2022-11-23T07:33:29.833Z,81.74
2022-11-23T07:34:29.054Z,78.57
2022-11-23T07:35:29.362Z,87.01
2022-11-23T07:36:29.549Z,97.42
2022-11-23T07:37:28.869Z,105.46
2022-11-23T07:38:30.358Z,114.32
2022-11-23T07:39:55.137Z,136.04
2022-11-23T07:40:30.738Z,152.45
2022-11-23T07:41:35.442Z,168.41
2022-11-23T07:42:34.462Z,186.82
2022-11-23T07:43:29.402Z,198.02
2022-11-23T07:44:30.728Z,199.90
2022-11-23T07:45:30.029Z,202.17
2022-11-23T07:46:28.248Z,206.85
2022-11-23T07:47:29.508Z,209.49
2022-11-23T07:48:34.728Z,202.42
2022-11-23T07:49:29.595Z,179.97
2022-11-23T07:50:32.368Z,216.15
2022-11-23T07:51:28.623Z,225.09
2022-11-23T07:52:28.890Z,229.70
2022-11-23T07:53:32.228Z,228.13
2022-11-23T07:54:29.449Z,234.92
2022-11-23T07:55:28.713Z,229.42
2022-11-23T07:56:31.087Z,181.27
2022-11-23T07:57:29.392Z,178.71
2022-11-23T07:58:28.510Z,184.36
2022-11-23T07:59:32.110Z,191.00
2022-11-23T08:00:28.083Z,190.49
2022-11-23T08:01:32.414Z,215.60
2022-11-23T08:02:29.716Z,243.63
2022-11-23T08:03:29.158Z,273.84
2022-11-23T08:04:32.467Z,301.53
2022-11-23T08:05:30.403Z,314.42
2022-11-23T08:06:30.638Z,319.68
2022-11-23T08:07:27.935Z,319.95
2022-11-23T08:08:28.277Z,328.75
2022-11-23T08:09:29.528Z,336.52
2022-11-23T08:10:27.723Z,295.04
2022-11-23T08:11:32.067Z,353.94
2022-11-23T08:12:28.274Z,338.27
2022-11-23T08:13:29.518Z,329.28
2022-11-23T08:14:32.207Z,341.35
2022-11-23T08:15:30.018Z,380.70
2022-11-23T08:16:29.263Z,380.28
2022-11-23T08:17:29.568Z,399.64
2022-11-23T08:18:29.833Z,422.40
2022-11-23T08:19:30.098Z,424.51
2022-11-23T08:20:29.288Z,435.77
2022-11-23T08:21:27.588Z,442.83
2022-11-23T08:22:31.935Z,454.80
2022-11-23T08:23:29.185Z,464.95
2022-11-23T08:24:28.402Z,468.44
2022-11-23T08:25:31.662Z,387.57
2022-11-23T08:26:28.908Z,369.41
2022-11-23T08:27:28.158Z,472.79
2022-11-23T08:28:28.433Z,441.50
2022-11-23T08:29:30.738Z,407.20
2022-11-23T08:30:29.968Z,345.31
2022-11-23T08:31:30.158Z,364.57
2022-11-23T08:32:30.403Z,407.85
2022-11-23T08:33:30.734Z,384.46
2022-11-23T08:34:31.262Z,387.63
2022-11-23T08:35:30.213Z,382.85
2022-11-23T08:36:28.395Z,338.16
2022-11-23T08:37:28.874Z,329.96
2022-11-23T08:38:27.828Z,324.64
2022-11-23T08:39:31.249Z,369.69
2022-11-23T08:40:30.305Z,417.97
2022-11-23T08:41:27.537Z,387.60
2022-11-23T08:42:30.900Z,406.18
2022-11-23T08:43:28.064Z,410.19
2022-11-23T08:44:32.026Z,420.30
2022-11-23T08:45:29.642Z,428.42
2022-11-23T08:46:27.764Z,434.06
2022-11-23T08:47:42.557Z,435.23
2022-11-23T08:48:28.307Z,429.19
2022-11-23T08:49:27.453Z,436.70
2022-11-23T08:50:30.271Z,435.20
2022-11-23T08:51:29.953Z,434.98
2022-11-23T08:52:28.211Z,437.35
2022-11-23T08:53:29.424Z,438.45
2022-11-23T08:54:30.393Z,439.30
2022-11-23T08:55:31.000Z,439.42
2022-11-23T08:56:27.133Z,440.89
2022-11-23T08:57:30.507Z,441.72
2022-11-23T08:58:29.628Z,442.71
2022-11-23T08:59:34.145Z,441.60
2022-11-23T09:00:27.174Z,438.98
2022-11-23T09:01:28.525Z,451.33
2022-11-23T09:02:29.588Z,420.91
2022-11-23T09:03:27.159Z,411.57
2022-11-23T09:04:27.402Z,335.32
2022-11-23T09:05:27.673Z,375.81
2022-11-23T09:06:28.954Z,364.09
2022-11-23T09:07:27.163Z,355.98
2022-11-23T09:08:28.333Z,340.58
2022-11-23T09:09:28.594Z,318.73
2022-11-23T09:10:29.872Z,311.51
2022-11-23T09:11:27.053Z,300.11
2022-11-23T09:12:27.350Z,295.01
2022-11-23T09:13:28.472Z,312.35
2022-11-23T09:14:27.767Z,321.73
2022-11-23T09:15:26.952Z,419.07
2022-11-23T09:16:59.407Z,365.62
2022-11-23T09:17:27.578Z,347.91
2022-11-23T09:18:27.684Z,380.61
2022-11-23T09:19:31.002Z,398.30
2022-11-23T09:20:27.127Z,466.77
2022-11-23T09:21:27.383Z,519.16
2022-11-23T09:22:29.129Z,562.73
2022-11-23T09:23:27.898Z,587.71
2022-11-23T09:24:28.245Z,607.86
2022-11-23T09:25:28.297Z,629.73
2022-11-23T09:27:07.057Z,615.64
2022-11-23T09:27:26.748Z,606.52
2022-11-23T09:28:27.038Z,560.63
2022-11-23T09:29:27.222Z,540.99
2022-11-23T09:30:42.015Z,547.83
2022-11-23T09:31:28.773Z,564.78
2022-11-23T09:32:26.942Z,579.71
2022-11-23T09:33:41.867Z,569.19
2022-11-23T09:34:28.504Z,566.06
2022-11-23T09:35:26.643Z,559.55
2022-11-23T09:36:28.912Z,521.66
2022-11-23T09:37:30.193Z,509.21
2022-11-23T09:38:51.524Z,484.82
2022-11-23T09:39:29.768Z,448.14
2022-11-23T09:40:28.875Z,401.84
2022-11-23T09:41:27.149Z,390.68
2022-11-23T09:42:27.415Z,347.77
2022-11-23T09:43:26.622Z,309.83
2022-11-23T09:44:26.892Z,308.33
2022-11-23T09:45:27.338Z,338.81
2022-11-23T09:46:27.408Z,371.99
2022-11-23T09:47:26.762Z,379.69
2022-11-23T09:48:26.943Z,326.55
2022-11-23T09:49:26.628Z,413.72
2022-11-23T09:50:26.773Z,365.91
2022-11-23T09:51:27.192Z,308.99
2022-11-23T09:52:27.252Z,285.72
2022-11-23T09:53:26.478Z,278.31
2022-11-23T09:54:26.702Z,275.80
2022-11-23T09:55:26.929Z,275.84
2022-11-23T09:56:27.172Z,268.96
2022-11-23T09:57:27.428Z,257.93
2022-11-23T09:58:26.639Z,243.64
2022-11-23T09:59:26.898Z,239.57
2022-11-23T10:00:41.665Z,230.76
2022-11-23T10:01:27.466Z,223.30
2022-11-23T10:02:26.669Z,209.21
2022-11-23T10:03:26.789Z,201.06
2022-11-23T10:04:27.033Z,197.42
2022-11-23T10:05:26.240Z,199.19
2022-11-23T10:06:26.452Z,206.85
2022-11-23T10:07:27.780Z,209.89
2022-11-23T10:08:26.955Z,215.17
2022-11-23T10:09:26.178Z,225.99
2022-11-23T10:10:26.477Z,234.36
2022-11-23T10:11:26.668Z,232.72
2022-11-23T10:12:26.926Z,236.20
2022-11-23T10:13:27.138Z,250.85
2022-11-23T10:14:26.358Z,275.80
2022-11-23T10:15:26.565Z,304.38
2022-11-23T10:16:26.882Z,331.42
2022-11-23T10:17:27.969Z,316.14
2022-11-23T10:18:27.389Z,328.89
2022-11-23T10:19:27.587Z,323.28
2022-11-23T10:20:26.842Z,330.11
2022-11-23T10:21:29.088Z,328.92
2022-11-23T10:22:28.282Z,319.05
2022-11-23T10:23:28.558Z,301.19
2022-11-23T10:24:27.753Z,293.97
2022-11-23T10:25:27.963Z,281.41
2022-11-23T10:26:26.139Z,297.87
2022-11-23T10:27:27.337Z,320.38
2022-11-23T10:28:26.649Z,328.15
2022-11-23T10:29:28.062Z,323.17
2022-11-23T10:30:27.098Z,330.20
2022-11-23T10:31:33.615Z,340.58
2022-11-23T10:32:28.617Z,341.17
2022-11-23T10:33:26.793Z,376.30
2022-11-23T10:34:30.755Z,395.28
2022-11-23T10:35:26.428Z,414.08
2022-11-23T10:36:26.483Z,428.87
2022-11-23T10:37:26.708Z,515.97
2022-11-23T10:38:25.943Z,565.97
2022-11-23T10:39:26.228Z,836.20
2022-11-23T10:40:26.464Z,738.98
2022-11-23T10:41:26.692Z,869.25
2022-11-23T10:42:25.952Z,855.00
2022-11-23T10:43:27.053Z,835.69
2022-11-23T10:44:26.372Z,792.25
2022-11-23T10:45:26.613Z,774.27
2022-11-23T10:46:26.803Z,784.30
2022-11-23T10:47:26.105Z,861.60
2022-11-23T10:48:28.440Z,891.66
2022-11-23T10:49:27.643Z,892.60
2022-11-23T10:50:25.807Z,854.13
2022-11-23T10:51:29.228Z,820.58
2022-11-23T10:52:27.165Z,798.56
2022-11-23T10:53:26.560Z,793.02
2022-11-23T10:54:33.368Z,804.08
2022-11-23T10:55:27.079Z,816.30
2022-11-23T10:56:26.378Z,823.30
2022-11-23T10:57:26.618Z,814.06
2022-11-23T10:58:25.763Z,816.52
2022-11-23T10:59:26.018Z,793.90
2022-11-23T11:00:30.591Z,788.02
2022-11-23T11:01:26.496Z,789.17
2022-11-23T11:02:33.118Z,792.92
2022-11-23T11:03:27.033Z,784.33
2022-11-23T11:04:28.158Z,795.48
2022-11-23T11:06:07.981Z,902.87
2022-11-23T11:06:26.732Z,943.75
2022-11-23T11:07:25.961Z,827.08
2022-11-23T11:08:26.395Z,851.45
2022-11-23T11:09:26.408Z,811.62
2022-11-23T11:10:25.603Z,778.49
2022-11-23T11:11:25.878Z,788.86
2022-11-23T11:12:27.113Z,798.00
2022-11-23T11:13:26.378Z,805.04
2022-11-23T11:14:26.657Z,803.50
2022-11-23T11:15:26.879Z,785.54
2022-11-23T11:16:26.128Z,809.76
2022-11-23T11:17:25.294Z,803.56
2022-11-23T11:18:27.514Z,765.31
2022-11-23T11:19:40.329Z,630.13
2022-11-23T11:20:26.993Z,792.42
2022-11-23T11:21:26.201Z,672.75
2022-11-23T11:22:32.680Z,718.20
2022-11-23T11:23:25.647Z,714.24
2022-11-23T11:24:25.843Z,700.02
2022-11-23T11:25:27.202Z,703.05
2022-11-23T11:26:25.283Z,925.43
2022-11-23T11:27:25.593Z,895.12
2022-11-23T11:28:26.748Z,618.07
2022-11-23T11:29:27.009Z,593.49
2022-11-23T11:30:25.151Z,961.92
2022-11-23T11:31:26.496Z,777.07
2022-11-23T11:32:41.252Z,978.90
2022-11-23T11:33:25.888Z,679.04
2022-11-23T11:34:25.067Z,913.76
2022-11-23T11:35:27.332Z,940.57
2022-11-23T11:36:25.617Z,614.69
2022-11-23T11:37:26.855Z,757.47
2022-11-23T11:38:25.038Z,686.69
2022-11-23T11:39:26.323Z,597.67
2022-11-23T11:40:26.568Z,833.48
2022-11-23T11:41:28.808Z,920.74
2022-11-23T11:42:24.987Z,978.05
2022-11-23T11:44:41.104Z,818.09
2022-11-23T11:44:47.251Z,766.73
2022-11-23T11:46:06.563Z,887.97
2022-11-23T11:47:03.303Z,583.51
2022-11-23T11:47:50.087Z,925.05
2022-11-23T11:48:47.178Z,616.26
2022-11-23T11:49:47.664Z,866.69
2022-11-23T11:51:13.683Z,585.97
2022-11-23T11:51:46.856Z,581.90
2022-11-23T11:52:47.135Z,560.53
2022-11-23T11:53:47.358Z,588.41
2022-11-23T11:55:02.196Z,654.93
2022-11-23T11:55:47.883Z,577.48
2022-11-23T11:56:47.138Z,555.61
2022-11-23T11:57:48.428Z,782.59
2022-11-23T11:58:49.739Z,926.41
2022-11-23T11:59:46.920Z,565.41
2022-11-23T12:01:14.959Z,781.93
2022-11-23T12:01:47.442Z,905.83
2022-11-23T12:02:48.810Z,887.91
2022-11-23T12:03:46.930Z,774.52
2022-11-23T12:04:48.133Z,790.40
2022-11-23T12:05:48.375Z,691.59
2022-11-23T12:06:48.953Z,822.71
2022-11-23T12:07:48.973Z,719.62
2022-11-23T12:08:47.246Z,691.37
2022-11-23T12:10:12.532Z,643.91
2022-11-23T12:10:46.703Z,714.42
2022-11-23T12:11:48.060Z,705.02
2022-11-23T12:12:47.733Z,605.30
2022-11-23T12:13:50.613Z,838.92
2022-11-23T12:14:48.898Z,658.56
2022-11-23T12:15:49.767Z,630.60
2022-11-23T12:16:55.559Z,681.52
2022-11-23T12:17:47.722Z,679.91
2022-11-23T12:18:48.828Z,699.64
2022-11-23T12:19:48.179Z,682.91
2022-11-23T12:20:47.378Z,669.03
2022-11-23T12:22:19.890Z,625.95
2022-11-23T12:22:46.913Z,662.93
2022-11-23T12:23:47.193Z,612.26
2022-11-23T12:24:48.398Z,653.54
2022-11-23T12:25:47.743Z,724.94
2022-11-23T12:26:48.027Z,862.03
2022-11-23T12:27:49.207Z,710.42
2022-11-23T12:28:46.495Z,782.01
2022-11-23T12:29:46.984Z,740.23
2022-11-23T12:30:47.028Z,711.15
2022-11-23T12:31:46.286Z,779.94
2022-11-23T12:32:48.613Z,721.48
2022-11-23T12:33:48.738Z,726.51
2022-11-23T12:34:46.289Z,783.88
2022-11-23T12:36:01.078Z,762.56
2022-11-23T12:36:46.746Z,788.01
2022-11-23T12:37:46.989Z,804.56
2022-11-23T12:38:53.448Z,723.79
2022-11-23T12:39:53.670Z,724.44
2022-11-23T12:40:46.638Z,782.49
2022-11-23T12:41:46.970Z,679.27
2022-11-23T12:42:48.149Z,660.19
2022-11-23T12:43:46.426Z,626.09
2022-11-23T12:45:11.958Z,653.43
2022-11-23T12:45:46.191Z,628.86
2022-11-23T12:46:46.439Z,559.33
2022-11-23T12:47:46.729Z,546.26
2022-11-23T12:49:11.868Z,334.99
2022-11-23T12:49:46.143Z,304.30
2022-11-23T12:50:47.423Z,274.77
2022-11-23T12:51:46.607Z,352.42
2022-11-23T12:52:46.893Z,279.72
2022-11-23T12:54:12.350Z,517.21
2022-11-23T12:54:46.503Z,318.47
2022-11-23T12:55:46.748Z,253.10
2022-11-23T12:56:48.029Z,246.17
2022-11-23T12:57:46.213Z,244.52
2022-11-23T12:58:46.448Z,246.78
2022-11-23T13:00:11.557Z,259.16
2022-11-23T13:00:46.909Z,273.41
2022-11-23T13:01:47.118Z,310.17
2022-11-23T13:03:36.159Z,281.55
2022-11-23T13:03:46.519Z,292.80
2022-11-23T13:04:46.779Z,323.36